Arklow Raider — EIXS — position and weather

sailwx.info

Track history (hours):
 
Tides and Currents Weather Stations Pressure Air Temp Water Temp Dewpoint Dewpoint Depression Visibility Wind Speed Wind Dir Waves Ship Positions

Arklow Raider

Last reported at 2016-May-28 22:19 UTC. Time now 2016-May-29 03:55 UTC.
Position N 47°42' W 006°45'.

Length 90 m; draft 6 m.

Type: Ship. MMSI: 250001268.

Date/timePositionNaut miles runAvg speedWind from/ knotsBaromVisibWave heightAir tempDewpointWater temp
2016-May-28 22:19N 47°42' W 006°45'1810.0
2016-May-28 20:33N 47°58' W 006°33'29 9.5
2016-May-28 17:30N 48°24' W 006°14'8 9.0
2016-May-28 16:33N 48°32' W 006°09'10 9.6
2016-May-28 15:32N 48°40' W 006°01'1010.1
2016-May-28 14:33N 48°49' W 005°54'1010.2
2016-May-28 13:33N 48°56' W 005°43'1111.4
2016-May-28 12:33N 49°02' W 005°28'1010.3
2016-May-28 11:33N 49°07' W 005°14'11 9.7
2016-May-28 10:28N 49°12' W 005°00'8 9.2
2016-May-28 09:33N 49°17' W 004°49'13 8.9
2016-May-28 08:09N 49°23' W 004°33'8 9.1
2016-May-28 07:17N 49°27' W 004°23'7 9.5
2016-May-28 06:33N 49°31' W 004°13'1010.2
2016-May-28 05:33N 49°36' W 003°60'1110.8
2016-May-28 04:33N 49°42' W 003°45'1111.0
2016-May-28 03:33N 49°47' W 003°31'11410.1
2016-May-27 16:22N 50°23' W 000°43'911.3
2016-May-27 15:33N 50°26' W 000°29'1110.5
2016-May-27 14:33N 50°28' W 000°13'10 9.6
2016-May-27 13:33N 50°31' E 000°02'49 9.7
2016-May-27 08:33N 50°54' E 001°09'1211.8
2016-May-27 07:33N 51°02' E 001°23'1110.6
2016-May-27 06:33N 51°09' E 001°35'8 8.4
2016-May-27 05:33N 51°16' E 001°41'8 8.0
2016-May-27 04:34N 51°24' E 001°45'9 8.6
2016-May-27 03:33N 51°33' E 001°45'10 9.8
2016-May-27 02:33N 51°43' E 001°44'9 9.2
2016-May-27 01:33N 51°51' E 001°38'9 8.6
2016-May-27 00:33N 51°56' E 001°26'7 6.7
2016-May-26 23:33N 51°59' E 001°17'6 4.9
2016-May-26 22:24N 52°02' E 001°09'0 0.4
2016-May-26 21:30N 52°02' E 001°09'0 0.0
2016-May-26 20:33N 52°02' E 001°09'0 0.0
2016-May-26 19:30N 52°02' E 001°09'0 0.0
2016-May-26 18:30N 52°02' E 001°09'0 0.0
2016-May-26 17:27N 52°02' E 001°09'0 0.0
2016-May-26 16:27N 52°02' E 001°09'0 0.0
2016-May-26 15:33N 52°02' E 001°09'0 0.0
2016-May-26 14:33N 52°02' E 001°09'0 0.0
2016-May-26 13:30N 52°02' E 001°09'0 0.0
2016-May-26 12:33N 52°02' E 001°09'0 0.0
2016-May-26 11:33N 52°02' E 001°09'0 0.0
2016-May-26 10:33N 52°02' E 001°09'0 0.0
2016-May-26 09:33N 52°02' E 001°09'0 0.0
2016-May-26 08:33N 52°02' E 001°09'0 0.0
2016-May-26 07:33N 52°02' E 001°09'0 0.0
2016-May-26 06:33N 52°02' E 001°09'0 0.0
2016-May-26 05:33N 52°02' E 001°09'0 0.0
2016-May-26 04:33N 52°02' E 001°09'0 0.0
2016-May-26 03:33N 52°02' E 001°09'0 0.0
2016-May-26 02:33N 52°02' E 001°09'0 0.0
2016-May-26 01:33N 52°02' E 001°09'0 0.0
2016-May-26 00:33N 52°02' E 001°09'0 0.0
2016-May-25 23:30N 52°02' E 001°09'0 0.0
2016-May-25 22:33N 52°02' E 001°09'0 0.0
2016-May-25 21:33N 52°02' E 001°09'0 0.0
2016-May-25 20:33N 52°02' E 001°09'0 0.0
2016-May-25 19:33N 52°02' E 001°09'0 0.0
2016-May-25 18:33N 52°02' E 001°09'0 0.0
2016-May-25 17:33N 52°02' E 001°09'0 0.0
2016-May-25 16:33N 52°02' E 001°09'0 0.0
2016-May-25 15:33N 52°02' E 001°09'0 0.0
2016-May-25 14:33N 52°02' E 001°09'0 0.0
2016-May-25 13:33N 52°02' E 001°09'0 0.0
2016-May-25 12:33N 52°02' E 001°09'0 0.0
2016-May-25 11:33N 52°02' E 001°09'0 0.0
2016-May-25 10:33N 52°02' E 001°09'0 0.0
2016-May-25 09:33N 52°02' E 001°09'0 0.0
2016-May-25 08:33N 52°02' E 001°09'0 0.0
2016-May-25 07:33N 52°02' E 001°09'0 0.0
2016-May-25 06:33N 52°02' E 001°09'0 0.0
2016-May-25 05:33N 52°02' E 001°09'5 5.1
2016-May-25 04:34N 51°59' E 001°16'8 7.6
2016-May-25 03:34N 51°56' E 001°28'8 8.2
2016-May-25 02:33N 51°52' E 001°39'4 3.9
2016-May-25 01:34N 51°51' E 001°45'3 3.4
2016-May-25 00:33N 51°50' E 001°50'5 5.4
2016-May-24 23:34N 51°52' E 001°59'3611.2
2016-May-24 20:19N 51°45' E 002°57'1910.7
2016-May-24 18:33N 51°36' E 003°23'1313.4
2016-May-24 17:33N 51°26' E 003°36'1212.4
2016-May-24 16:33N 51°22' E 003°56'7 6.6
2016-May-24 15:33N 51°22' E 004°06'7 7.4
2016-May-24 14:34N 51°19' E 004°16'3 3.0
2016-May-24 13:33N 51°17' E 004°20'2 1.8
2016-May-24 12:33N 51°15' E 004°22'0 0.4
2016-May-24 11:33N 51°15' E 004°22'0 0.0
2016-May-24 10:30N 51°15' E 004°22'0 0.0
2016-May-24 09:33N 51°15' E 004°22'0 0.0
2016-May-24 08:33N 51°15' E 004°22'0 0.0
2016-May-24 07:33N 51°15' E 004°22'0 0.0
2016-May-24 06:30N 51°15' E 004°22'0 0.0
2016-May-24 05:33N 51°15' E 004°22'0 0.0
2016-May-24 04:33N 51°15' E 004°22'0 0.0
2016-May-24 03:33N 51°15' E 004°22'0 0.0
2016-May-24 02:30N 51°15' E 004°22'0 0.0
2016-May-24 01:33N 51°15' E 004°22'0 0.0
2016-May-24 00:33N 51°15' E 004°22'0 0.0
2016-May-23 23:33N 51°15' E 004°22'0 0.0
2016-May-23 22:33N 51°15' E 004°22'0 0.0
2016-May-23 21:33N 51°15' E 004°22'0 0.0
2016-May-23 20:33N 51°15' E 004°22'0 0.0
2016-May-23 19:33N 51°15' E 004°22'0 0.0
2016-May-23 18:33N 51°15' E 004°22'0 0.0
2016-May-23 17:33N 51°15' E 004°22'0 0.0
2016-May-23 16:33N 51°15' E 004°22'0 0.0
2016-May-23 15:33N 51°15' E 004°22'0 0.0
2016-May-23 14:33N 51°15' E 004°22'0 0.0
2016-May-23 13:33N 51°15' E 004°22'0 0.0
2016-May-23 12:33N 51°15' E 004°22'0 0.0
2016-May-23 11:33N 51°15' E 004°22'0 0.0
2016-May-23 10:33N 51°15' E 004°22'2 2.4
2016-May-23 09:33N 51°17' E 004°20'4 4.3
2016-May-23 08:33N 51°21' E 004°17'1 1.5
2016-May-23 07:33N 51°21' E 004°15'6 6.0
2016-May-23 06:33N 51°22' E 004°05'5 5.5
2016-May-23 05:33N 51°25' E 003°58'7 7.2
2016-May-23 04:33N 51°21' E 003°49'9 8.8
2016-May-23 03:33N 51°25' E 003°37'9 8.8
2016-May-23 02:34N 51°24' E 003°23'1211.7
2016-May-23 01:33N 51°24' E 003°04'1211.7
2016-May-23 00:32N 51°22' E 002°45'9 4.7
2016-May-22 22:32N 51°22' E 002°30'4 4.5
2016-May-22 21:33N 51°20' E 002°24'8 7.5
2016-May-22 20:33N 51°16' E 002°13'9 8.7
2016-May-22 19:33N 51°11' E 002°01'9 8.8
2016-May-22 18:33N 51°07' E 001°49'9 9.0
2016-May-22 17:33N 51°00' E 001°39'9 9.2
2016-May-22 16:33N 50°54' E 001°30'1210.7
2016-May-22 15:27N 50°43' E 001°22'4610.5
2016-May-22 11:04N 50°24' E 000°16'612.1
2016-May-22 10:32N 50°22' E 000°06'1312.4
2016-May-22 09:31N 50°21' W 000°14'8711.0
2016-May-22 01:33N 50°17' W 002°30'9 8.6
2016-May-22 00:33N 50°15' W 002°43'10 9.5
2016-May-21 23:33N 50°13' W 002°58'1010.3
2016-May-21 22:33N 50°11' W 003°14'1110.8
2016-May-21 21:34N 50°09' W 003°30'1111.1
2016-May-21 20:33N 50°06' W 003°47'1211.3
2016-May-21 19:31N 50°04' W 004°05'1111.4
2016-May-21 18:34N 50°01' W 004°21'1211.6
2016-May-21 17:30N 49°58' W 004°40'1111.6
2016-May-21 16:32N 49°56' W 004°57'230 8.1
2016-May-20 12:10N 53°43' W 005°58'810.4
2016-May-20 11:24N 53°48' W 006°08'  
Track history (hours):
 
Tides and Currents Weather Stations Pressure Air Temp Water Temp Dewpoint Dewpoint Depression Visibility Wind Speed Wind Dir Waves Ship Positions

Arklow Raider

Last reported at 2016-May-28 22:19 UTC. Time now 2016-May-29 03:55 UTC.
Position N 47°42' W 006°45'.

Length 90 m; draft 6 m.

Type: Ship. MMSI: 250001268.

Date/timePositionNaut miles runAvg speedWind from/ knotsBaromVisibWave heightAir tempDewpointWater temp
2016-May-28 22:19N 47°42' W 006°45'1810.0
2016-May-28 20:33N 47°58' W 006°33'29 9.5
2016-May-28 17:30N 48°24' W 006°14'8 9.0
2016-May-28 16:33N 48°32' W 006°09'10 9.6
2016-May-28 15:32N 48°40' W 006°01'1010.1
2016-May-28 14:33N 48°49' W 005°54'1010.2
2016-May-28 13:33N 48°56' W 005°43'1111.4
2016-May-28 12:33N 49°02' W 005°28'1010.3
2016-May-28 11:33N 49°07' W 005°14'11 9.7
2016-May-28 10:28N 49°12' W 005°00'8 9.2
2016-May-28 09:33N 49°17' W 004°49'13 8.9
2016-May-28 08:09N 49°23' W 004°33'8 9.1
2016-May-28 07:17N 49°27' W 004°23'7 9.5
2016-May-28 06:33N 49°31' W 004°13'1010.2
2016-May-28 05:33N 49°36' W 003°60'1110.8
2016-May-28 04:33N 49°42' W 003°45'1111.0
2016-May-28 03:33N 49°47' W 003°31'11410.1
2016-May-27 16:22N 50°23' W 000°43'911.3
2016-May-27 15:33N 50°26' W 000°29'1110.5
2016-May-27 14:33N 50°28' W 000°13'10 9.6
2016-May-27 13:33N 50°31' E 000°02'49 9.7
2016-May-27 08:33N 50°54' E 001°09'1211.8
2016-May-27 07:33N 51°02' E 001°23'1110.6
2016-May-27 06:33N 51°09' E 001°35'8 8.4
2016-May-27 05:33N 51°16' E 001°41'8 8.0
2016-May-27 04:34N 51°24' E 001°45'9 8.6
2016-May-27 03:33N 51°33' E 001°45'10 9.8
2016-May-27 02:33N 51°43' E 001°44'9 9.2
2016-May-27 01:33N 51°51' E 001°38'9 8.6
2016-May-27 00:33N 51°56' E 001°26'7 6.7
2016-May-26 23:33N 51°59' E 001°17'6 4.9
2016-May-26 22:24N 52°02' E 001°09'0 0.4
2016-May-26 21:30N 52°02' E 001°09'0 0.0
2016-May-26 20:33N 52°02' E 001°09'0 0.0
2016-May-26 19:30N 52°02' E 001°09'0 0.0
2016-May-26 18:30N 52°02' E 001°09'0 0.0
2016-May-26 17:27N 52°02' E 001°09'0 0.0
2016-May-26 16:27N 52°02' E 001°09'0 0.0
2016-May-26 15:33N 52°02' E 001°09'0 0.0
2016-May-26 14:33N 52°02' E 001°09'0 0.0
2016-May-26 13:30N 52°02' E 001°09'0 0.0
2016-May-26 12:33N 52°02' E 001°09'0 0.0
2016-May-26 11:33N 52°02' E 001°09'0 0.0
2016-May-26 10:33N 52°02' E 001°09'0 0.0
2016-May-26 09:33N 52°02' E 001°09'0 0.0
2016-May-26 08:33N 52°02' E 001°09'0 0.0
2016-May-26 07:33N 52°02' E 001°09'0 0.0
2016-May-26 06:33N 52°02' E 001°09'0 0.0
2016-May-26 05:33N 52°02' E 001°09'0 0.0
2016-May-26 04:33N 52°02' E 001°09'0 0.0
2016-May-26 03:33N 52°02' E 001°09'0 0.0
2016-May-26 02:33N 52°02' E 001°09'0 0.0
2016-May-26 01:33N 52°02' E 001°09'0 0.0
2016-May-26 00:33N 52°02' E 001°09'0 0.0
2016-May-25 23:30N 52°02' E 001°09'0 0.0
2016-May-25 22:33N 52°02' E 001°09'0 0.0
2016-May-25 21:33N 52°02' E 001°09'0 0.0
2016-May-25 20:33N 52°02' E 001°09'0 0.0
2016-May-25 19:33N 52°02' E 001°09'0 0.0
2016-May-25 18:33N 52°02' E 001°09'0 0.0
2016-May-25 17:33N 52°02' E 001°09'0 0.0
2016-May-25 16:33N 52°02' E 001°09'0 0.0
2016-May-25 15:33N 52°02' E 001°09'0 0.0
2016-May-25 14:33N 52°02' E 001°09'0 0.0
2016-May-25 13:33N 52°02' E 001°09'0 0.0
2016-May-25 12:33N 52°02' E 001°09'0 0.0
2016-May-25 11:33N 52°02' E 001°09'0 0.0
2016-May-25 10:33N 52°02' E 001°09'0 0.0
2016-May-25 09:33N 52°02' E 001°09'0 0.0
2016-May-25 08:33N 52°02' E 001°09'0 0.0
2016-May-25 07:33N 52°02' E 001°09'0 0.0
2016-May-25 06:33N 52°02' E 001°09'0 0.0
2016-May-25 05:33N 52°02' E 001°09'5 5.1
2016-May-25 04:34N 51°59' E 001°16'8 7.6
2016-May-25 03:34N 51°56' E 001°28'8 8.2
2016-May-25 02:33N 51°52' E 001°39'4 3.9
2016-May-25 01:34N 51°51' E 001°45'3 3.4
2016-May-25 00:33N 51°50' E 001°50'5 5.4
2016-May-24 23:34N 51°52' E 001°59'3611.2
2016-May-24 20:19N 51°45' E 002°57'1910.7
2016-May-24 18:33N 51°36' E 003°23'1313.4
2016-May-24 17:33N 51°26' E 003°36'1212.4
2016-May-24 16:33N 51°22' E 003°56'7 6.6
2016-May-24 15:33N 51°22' E 004°06'7 7.4
2016-May-24 14:34N 51°19' E 004°16'3 3.0
2016-May-24 13:33N 51°17' E 004°20'2 1.8
2016-May-24 12:33N 51°15' E 004°22'0 0.4
2016-May-24 11:33N 51°15' E 004°22'0 0.0
2016-May-24 10:30N 51°15' E 004°22'0 0.0
2016-May-24 09:33N 51°15' E 004°22'0 0.0
2016-May-24 08:33N 51°15' E 004°22'0 0.0
2016-May-24 07:33N 51°15' E 004°22'0 0.0
2016-May-24 06:30N 51°15' E 004°22'0 0.0
2016-May-24 05:33N 51°15' E 004°22'0 0.0
2016-May-24 04:33N 51°15' E 004°22'0 0.0
2016-May-24 03:33N 51°15' E 004°22'0 0.0
2016-May-24 02:30N 51°15' E 004°22'0 0.0
2016-May-24 01:33N 51°15' E 004°22'0 0.0
2016-May-24 00:33N 51°15' E 004°22'0 0.0
2016-May-23 23:33N 51°15' E 004°22'0 0.0
2016-May-23 22:33N 51°15' E 004°22'0 0.0
2016-May-23 21:33N 51°15' E 004°22'0 0.0
2016-May-23 20:33N 51°15' E 004°22'0 0.0
2016-May-23 19:33N 51°15' E 004°22'0 0.0
2016-May-23 18:33N 51°15' E 004°22'0 0.0
2016-May-23 17:33N 51°15' E 004°22'0 0.0
2016-May-23 16:33N 51°15' E 004°22'0 0.0
2016-May-23 15:33N 51°15' E 004°22'0 0.0
2016-May-23 14:33N 51°15' E 004°22'0 0.0
2016-May-23 13:33N 51°15' E 004°22'0 0.0
2016-May-23 12:33N 51°15' E 004°22'0 0.0
2016-May-23 11:33N 51°15' E 004°22'0 0.0
2016-May-23 10:33N 51°15' E 004°22'2 2.4
2016-May-23 09:33N 51°17' E 004°20'4 4.3
2016-May-23 08:33N 51°21' E 004°17'1 1.5
2016-May-23 07:33N 51°21' E 004°15'6 6.0
2016-May-23 06:33N 51°22' E 004°05'5 5.5
2016-May-23 05:33N 51°25' E 003°58'7 7.2
2016-May-23 04:33N 51°21' E 003°49'9 8.8
2016-May-23 03:33N 51°25' E 003°37'9 8.8
2016-May-23 02:34N 51°24' E 003°23'1211.7
2016-May-23 01:33N 51°24' E 003°04'1211.7
2016-May-23 00:32N 51°22' E 002°45'9 4.7
2016-May-22 22:32N 51°22' E 002°30'4 4.5
2016-May-22 21:33N 51°20' E 002°24'8 7.5
2016-May-22 20:33N 51°16' E 002°13'9 8.7
2016-May-22 19:33N 51°11' E 002°01'9 8.8
2016-May-22 18:33N 51°07' E 001°49'9 9.0
2016-May-22 17:33N 51°00' E 001°39'9 9.2
2016-May-22 16:33N 50°54' E 001°30'1210.7
2016-May-22 15:27N 50°43' E 001°22'4610.5
2016-May-22 11:04N 50°24' E 000°16'612.1
2016-May-22 10:32N 50°22' E 000°06'1312.4
2016-May-22 09:31N 50°21' W 000°14'8711.0
2016-May-22 01:33N 50°17' W 002°30'9 8.6
2016-May-22 00:33N 50°15' W 002°43'10 9.5
2016-May-21 23:33N 50°13' W 002°58'1010.3
2016-May-21 22:33N 50°11' W 003°14'1110.8
2016-May-21 21:34N 50°09' W 003°30'1111.1
2016-May-21 20:33N 50°06' W 003°47'1211.3
2016-May-21 19:31N 50°04' W 004°05'1111.4
2016-May-21 18:34N 50°01' W 004°21'1211.6
2016-May-21 17:30N 49°58' W 004°40'1111.6
2016-May-21 16:32N 49°56' W 004°57'230 8.1
2016-May-20 12:10N 53°43' W 005°58'810.4
2016-May-20 11:24N 53°48' W 006°08'  

Dump ship's entire track history